Time;durP1;ratioP1;P1;durP2;ratioP2;P2;SDS_P1;SDS_P2;PMS_P1;PMS_P2;Temp;Humidity;BMP_temperature;BMP_pressure;BME280_temperature;BME280_humidity;BME280_pressure;Samples;Min_cycle;Max_cycle;Signal;HPM_P1;HPM_P2
2023/03/22 00:00:54;;;;;;;13.70;7.85;;;9.00;99.90;;;;;;5065079;28;20151;-39
2023/03/22 00:03:21;;;;;;;15.10;8.68;;;9.20;99.90;;;;;;5064549;28;20051;-39
2023/03/22 00:05:47;;;;;;;15.35;8.55;;;8.70;99.90;;;;;;5064513;28;20055;-39
2023/03/22 00:08:13;;;;;;;14.32;8.43;;;8.70;99.90;;;;;;5065266;28;20041;-40
2023/03/22 00:10:40;;;;;;;12.00;8.25;;;8.80;99.90;;;;;;5066508;28;20119;-39
2023/03/22 00:13:14;;;;;;;17.67;8.95;;;8.70;99.90;;;;;;5068805;28;20040;-39
2023/03/22 00:15:43;;;;;;;15.43;9.40;;;8.90;99.90;;;;;;5068587;28;20667;-40
2023/03/22 00:18:11;;;;;;;15.60;9.93;;;8.80;99.90;;;;;;5068531;28;20213;-40
2023/03/22 00:20:38;;;;;;;17.77;10.32;;;8.90;99.90;;;;;;5068758;28;20443;-39
2023/03/22 00:23:05;;;;;;;17.58;10.70;;;8.70;99.90;;;;;;5068766;28;20190;-40
2023/03/22 00:25:31;;;;;;;17.23;10.48;;;8.70;99.90;;;;;;5068135;28;20052;-39
2023/03/22 00:27:56;;;;;;;20.27;10.90;;;8.70;99.90;;;;;;5068390;28;20045;-40
2023/03/22 00:30:22;;;;;;;16.25;11.15;;;8.70;99.90;;;;;;5068862;28;20055;-40
2023/03/22 00:32:48;;;;;;;19.65;12.40;;;8.60;99.90;;;;;;5068154;28;20094;-40
2023/03/22 00:35:14;;;;;;;16.05;11.10;;;8.60;99.90;;;;;;5050379;28;20071;-40
2023/03/22 00:37:39;;;;;;;18.77;11.68;;;8.60;99.90;;;;;;5068365;28;20123;-40
2023/03/22 00:40:08;;;;;;;15.35;9.98;;;8.60;99.90;;;;;;5068492;28;20048;-40
2023/03/22 00:42:37;;;;;;;19.95;9.63;;;8.50;99.90;;;;;;5068849;28;20147;-39
2023/03/22 00:45:05;;;;;;;15.63;8.88;;;8.50;99.90;;;;;;5068794;28;20490;-39
2023/03/22 00:47:31;;;;;;;15.68;8.18;;;8.50;99.90;;;;;;5068755;28;20056;-40
2023/03/22 00:49:57;;;;;;;14.85;8.18;;;8.90;99.90;;;;;;5068538;28;20047;-39
2023/03/22 00:52:23;;;;;;;17.10;8.85;;;9.20;99.90;;;;;;5068803;28;20121;-39
2023/03/22 00:54:48;;;;;;;15.50;8.93;;;8.40;99.90;;;;;;5068841;28;20881;-39
2023/03/22 00:57:14;;;;;;;16.48;8.20;;;9.00;99.90;;;;;;5069089;28;20463;-40
2023/03/22 00:59:41;;;;;;;14.18;7.72;;;8.70;99.90;;;;;;5068196;28;20041;-40
2023/03/22 01:02:08;;;;;;;12.35;7.82;;;8.40;99.90;;;;;;5068811;28;20036;-39
2023/03/22 01:04:34;;;;;;;13.35;8.43;;;8.70;99.90;;;;;;5068599;28;20112;-39
2023/03/22 01:07:02;;;;;;;14.95;9.05;;;8.40;99.90;;;;;;5068832;28;20048;-39
2023/03/22 01:09:32;;;;;;;11.77;7.95;;;8.10;99.90;;;;;;5068625;28;20371;-39
2023/03/22 01:12:00;;;;;;;15.02;8.25;;;8.60;99.90;;;;;;5068551;28;20083;-39
2023/03/22 01:14:27;;;;;;;19.42;7.82;;;8.60;99.90;;;;;;5068532;28;20037;-39
2023/03/22 01:16:56;;;;;;;12.30;7.75;;;9.10;99.90;;;;;;5067938;28;20044;-39
2023/03/22 01:19:22;;;;;;;14.40;7.43;;;8.00;99.90;;;;;;5067428;28;20110;-39
2023/03/22 01:21:48;;;;;;;12.27;6.47;;;8.60;99.90;;;;;;5067409;28;20105;-40
2023/03/22 01:24:13;;;;;;;8.88;5.93;;;8.60;99.90;;;;;;5068134;28;20048;-40
2023/03/22 01:26:39;;;;;;;10.35;5.70;;;8.60;99.90;;;;;;5067795;28;20048;-39
2023/03/22 01:29:05;;;;;;;13.05;6.38;;;8.60;99.90;;;;;;5068078;28;20131;-39
2023/03/22 01:31:30;;;;;;;12.32;5.90;;;8.50;99.90;;;;;;5067845;28;20040;-39
2023/03/22 01:33:56;;;;;;;13.18;5.65;;;8.60;99.90;;;;;;5067741;28;20121;-39
2023/03/22 01:36:22;;;;;;;14.23;6.35;;;8.90;99.90;;;;;;5067774;28;20554;-40
2023/03/22 01:38:47;;;;;;;11.48;5.90;;;8.60;99.90;;;;;;5068227;28;20748;-39
2023/03/22 01:41:15;;;;;;;9.98;5.80;;;8.60;99.90;;;;;;5050157;28;20051;-40
2023/03/22 01:43:41;;;;;;;11.65;5.97;;;8.60;99.90;;;;;;5067297;28;20063;-40
2023/03/22 01:46:07;;;;;;;11.85;6.07;;;8.80;99.90;;;;;;5067582;28;20044;-39
2023/03/22 01:48:44;;;;;;;13.85;6.60;;;8.40;99.90;;;;;;5067615;28;20861;-39
2023/03/22 01:51:21;;;;;;;14.82;7.60;;;8.70;99.90;;;;;;5049277;28;20072;-40
2023/03/22 01:54:09;;;;;;;15.05;7.43;;;8.40;99.90;;;;;;5067246;28;20397;-39
2023/03/22 01:56:38;;;;;;;11.65;7.35;;;8.40;99.90;;;;;;5067533;28;20080;-39
2023/03/22 01:59:05;;;;;;;13.25;6.78;;;8.40;99.90;;;;;;5067551;28;20048;-39
2023/03/22 02:01:32;;;;;;;9.65;6.43;;;7.80;99.90;;;;;;5049167;28;20451;-39
2023/03/22 02:04:08;;;;;;;13.60;6.47;;;8.60;99.90;;;;;;5066834;28;20809;-39
2023/03/22 02:06:37;;;;;;;13.88;6.43;;;8.00;99.90;;;;;;5067184;28;20045;-39
2023/03/22 02:09:08;;;;;;;9.48;6.18;;;8.70;99.90;;;;;;5067543;28;20033;-39
2023/03/22 02:11:37;;;;;;;12.57;6.32;;;8.30;99.90;;;;;;5067521;28;20127;-39
2023/03/22 02:14:30;;;;;;;13.90;7.10;;;8.30;99.90;;;;;;5067516;28;20032;-39
2023/03/22 02:17:16;;;;;;;14.20;6.43;;;8.00;99.90;;;;;;5067297;28;20052;-39
2023/03/22 02:20:09;;;;;;;11.15;6.15;;;8.00;99.90;;;;;;5067558;28;20048;-39
2023/03/22 02:22:59;;;;;;;13.23;6.28;;;8.00;99.90;;;;;;5067216;28;20052;-39
2023/03/22 02:25:49;;;;;;;13.32;5.80;;;8.00;99.90;;;;;;5067463;28;20047;-39
2023/03/22 02:28:24;;;;;;;15.80;6.38;;;8.30;99.90;;;;;;5067114;28;20145;-39
2023/03/22 02:31:07;;;;;;;14.00;5.70;;;9.30;99.90;;;;;;5065938;28;20745;-39
2023/03/22 02:34:04;;;;;;;10.10;5.18;;;8.00;99.90;;;;;;5066290;28;20044;-39
2023/03/22 02:36:55;;;;;;;21.23;6.15;;;8.00;99.90;;;;;;5048627;28;20048;-39
2023/03/22 02:39:54;;;;;;;15.57;5.70;;;8.20;99.90;;;;;;5066810;28;20040;-39
2023/03/22 02:42:38;;;;;;;10.75;4.60;;;8.10;99.90;;;;;;5067167;28;20044;-39
2023/03/22 02:45:14;;;;;;;12.18;4.65;;;8.20;99.90;;;;;;5066498;28;20067;-39
2023/03/22 02:47:56;;;;;;;7.93;3.58;;;8.20;99.90;;;;;;5066582;28;20502;-39
2023/03/22 02:50:36;;;;;;;11.82;4.20;;;8.00;99.90;;;;;;5048852;28;20048;-39
2023/03/22 02:53:13;;;;;;;10.85;3.80;;;7.90;99.90;;;;;;5066263;28;20510;-39
2023/03/22 02:55:57;;;;;;;12.63;3.45;;;8.10;99.90;;;;;;5066636;28;20131;-39
2023/03/22 02:58:33;;;;;;;12.40;3.70;;;8.10;99.90;;;;;;5066174;28;20101;-39
2023/03/22 03:01:04;;;;;;;9.85;3.33;;;8.70;99.90;;;;;;5048351;28;20127;-39
2023/03/22 03:03:32;;;;;;;11.30;3.90;;;8.80;99.90;;;;;;5066581;28;20119;-39
2023/03/22 03:06:02;;;;;;;11.48;3.00;;;8.60;99.90;;;;;;5066271;28;20051;-39
2023/03/22 03:08:29;;;;;;;7.00;2.42;;;8.70;99.90;;;;;;5066471;28;20089;-39
2023/03/22 03:10:55;;;;;;;11.10;3.10;;;8.30;99.90;;;;;;5066203;28;20059;-39
2023/03/22 03:13:20;;;;;;;8.45;2.97;;;8.00;99.90;;;;;;5066022;28;20477;-39
2023/03/22 03:15:56;;;;;;;7.32;1.83;;;8.30;99.90;;;;;;5066083;28;20052;-39
2023/03/22 03:18:39;;;;;;;12.60;3.10;;;8.30;99.90;;;;;;5065863;28;20037;-39
2023/03/22 03:21:19;;;;;;;14.77;2.88;;;8.00;99.90;;;;;;5065200;28;20563;-39
2023/03/22 03:24:20;;;;;;;9.95;2.78;;;8.00;99.90;;;;;;5066109;28;20438;-40
2023/03/22 03:27:01;;;;;;;5.45;2.40;;;8.10;99.90;;;;;;4983580;28;20085;-39
2023/03/22 03:29:45;;;;;;;9.48;2.53;;;8.00;99.90;;;;;;5056555;28;20457;-39
2023/03/22 03:32:27;;;;;;;12.73;2.92;;;8.00;99.90;;;;;;5065197;28;20490;-39
2023/03/22 03:35:06;;;;;;;8.77;2.45;;;8.20;99.90;;;;;;5064592;28;20490;-40
2023/03/22 03:37:45;;;;;;;11.25;3.08;;;8.00;99.90;;;;;;5065281;28;20125;-39
2023/03/22 03:40:21;;;;;;;13.32;3.17;;;8.00;99.90;;;;;;5065369;28;20086;-39
2023/03/22 03:42:50;;;;;;;7.53;2.90;;;8.50;99.90;;;;;;5065603;28;20048;-39
2023/03/22 03:45:18;;;;;;;10.63;2.75;;;8.20;99.90;;;;;;5065467;28;20398;-39
2023/03/22 03:47:55;;;;;;;11.38;3.35;;;8.00;99.90;;;;;;5047390;28;20044;-39
2023/03/22 03:50:23;;;;;;;11.25;3.17;;;8.20;99.90;;;;;;5065900;28;20036;-39
2023/03/22 03:52:49;;;;;;;10.10;3.15;;;8.60;99.90;;;;;;5065785;28;20041;-39
2023/03/22 03:55:15;;;;;;;10.70;2.70;;;8.60;99.90;;;;;;5065555;28;20490;-39
2023/03/22 03:57:40;;;;;;;7.82;2.90;;;8.50;99.90;;;;;;5065834;28;20076;-40
2023/03/22 04:00:08;;;;;;;12.50;3.13;;;9.00;99.90;;;;;;5065039;28;20150;-39
2023/03/22 04:02:34;;;;;;;5.78;2.80;;;7.90;99.90;;;;;;5065549;28;20049;-39
2023/03/22 04:05:00;;;;;;;9.20;3.13;;;8.40;99.90;;;;;;5065421;28;20043;-39
2023/03/22 04:07:26;;;;;;;14.00;2.92;;;8.20;99.90;;;;;;5065597;28;20044;-39
2023/03/22 04:09:51;;;;;;;14.38;3.38;;;8.20;99.90;;;;;;5065900;28;20068;-39
2023/03/22 04:12:17;;;;;;;13.55;3.05;;;8.40;99.90;;;;;;5065390;28;20760;-39
2023/03/22 04:14:43;;;;;;;7.85;3.08;;;8.40;99.90;;;;;;5065111;28;20086;-39
2023/03/22 04:17:09;;;;;;;11.60;4.10;;;7.60;99.90;;;;;;5065432;28;20236;-39
2023/03/22 04:19:35;;;;;;;13.10;3.35;;;8.60;99.90;;;;;;5065448;28;20044;-39
2023/03/22 04:22:02;;;;;;;8.68;3.08;;;8.00;99.90;;;;;;5065761;28;20072;-39
2023/03/22 04:24:27;;;;;;;8.15;3.10;;;8.20;99.90;;;;;;5065466;28;20044;-39
2023/03/22 04:26:53;;;;;;;8.30;3.35;;;8.40;99.90;;;;;;5065575;28;20059;-39
2023/03/22 04:29:20;;;;;;;7.88;2.83;;;8.30;99.90;;;;;;5064821;28;20039;-40
2023/03/22 04:31:46;;;;;;;10.00;3.13;;;8.30;99.90;;;;;;5065676;28;20387;-39
2023/03/22 04:34:12;;;;;;;7.03;3.08;;;8.40;99.90;;;;;;5065468;28;20047;-39
2023/03/22 04:36:38;;;;;;;11.57;3.33;;;8.30;99.90;;;;;;5065873;28;20425;-39
2023/03/22 04:39:07;;;;;;;9.88;3.45;;;8.10;99.90;;;;;;5065835;28;20044;-39
2023/03/22 04:41:33;;;;;;;7.22;3.80;;;8.50;99.90;;;;;;5065500;28;20081;-39
2023/03/22 04:44:02;;;;;;;11.38;5.03;;;8.50;99.90;;;;;;5065502;28;20121;-39
2023/03/22 04:46:33;;;;;;;10.75;4.75;;;8.30;99.90;;;;;;5065211;28;20131;-39
2023/03/22 04:48:59;;;;;;;11.07;5.70;;;8.30;99.90;;;;;;5064978;28;20418;-39
2023/03/22 04:51:25;;;;;;;13.00;7.50;;;8.40;99.90;;;;;;5064471;28;20047;-39
2023/03/22 04:53:51;;;;;;;14.93;6.85;;;8.70;99.90;;;;;;5047060;28;20050;-39
2023/03/22 04:56:17;;;;;;;13.95;7.75;;;8.40;99.90;;;;;;5047750;28;20072;-39
2023/03/22 04:58:44;;;;;;;17.23;8.23;;;8.50;99.90;;;;;;5068386;28;20521;-40
2023/03/22 05:01:12;;;;;;;13.65;8.02;;;8.50;99.90;;;;;;5067896;28;20159;-39
2023/03/22 05:03:38;;;;;;;17.17;9.27;;;8.70;99.90;;;;;;5068617;28;20044;-39
2023/03/22 05:06:06;;;;;;;18.45;11.18;;;8.50;99.90;;;;;;5068793;28;20052;-39
2023/03/22 05:08:32;;;;;;;17.48;9.82;;;8.30;99.90;;;;;;5068378;28;20048;-39
2023/03/22 05:11:04;;;;;;;17.40;9.80;;;8.80;99.90;;;;;;5068467;28;20541;-39
2023/03/22 05:13:30;;;;;;;20.63;10.57;;;8.90;99.90;;;;;;5068660;28;20079;-39
2023/03/22 05:15:56;;;;;;;18.15;10.80;;;8.80;99.90;;;;;;5068658;28;20057;-39
2023/03/22 05:18:26;;;;;;;18.00;11.40;;;8.40;99.90;;;;;;5068228;28;20064;-39
2023/03/22 05:20:56;;;;;;;21.90;11.45;;;9.00;99.90;;;;;;5067787;28;20465;-39
2023/03/22 05:23:22;;;;;;;20.02;11.80;;;8.60;99.90;;;;;;5067696;28;20461;-39
2023/03/22 05:25:49;;;;;;;21.27;11.60;;;8.60;99.90;;;;;;5068134;28;20480;-39
2023/03/22 05:28:18;;;;;;;17.65;11.63;;;8.80;99.90;;;;;;5067895;28;20548;-39
2023/03/22 05:30:44;;;;;;;18.45;12.70;;;8.70;99.90;;;;;;5049906;28;20119;-39
2023/03/22 05:33:11;;;;;;;23.55;12.82;;;9.90;99.90;;;;;;5067933;28;20040;-39
2023/03/22 05:35:40;;;;;;;22.25;13.02;;;8.40;99.90;;;;;;5068162;28;20040;-39
2023/03/22 05:38:07;;;;;;;21.63;13.05;;;8.70;99.90;;;;;;5068050;28;20052;-39
2023/03/22 05:40:33;;;;;;;21.33;13.15;;;8.80;99.90;;;;;;5068001;28;20072;-39
2023/03/22 05:42:58;;;;;;;25.35;13.15;;;9.10;99.90;;;;;;5068154;28;20114;-39
2023/03/22 05:45:25;;;;;;;21.38;13.02;;;8.80;99.90;;;;;;5067376;28;20044;-39
2023/03/22 05:47:52;;;;;;;20.65;13.35;;;8.80;99.90;;;;;;5067132;28;20087;-39
2023/03/22 05:50:21;;;;;;;22.40;13.20;;;8.80;99.90;;;;;;5066928;28;20049;-39
2023/03/22 05:52:48;;;;;;;18.55;13.05;;;8.90;99.90;;;;;;5067863;28;20124;-39
2023/03/22 05:55:16;;;;;;;23.23;13.63;;;8.50;99.90;;;;;;5067349;28;20044;-39
2023/03/22 05:57:43;;;;;;;20.58;12.95;;;8.80;99.90;;;;;;5067418;28;20080;-39
2023/03/22 06:00:12;;;;;;;19.50;12.05;;;8.80;99.90;;;;;;5067259;28;20078;-39
2023/03/22 06:02:42;;;;;;;22.58;13.70;;;8.40;99.90;;;;;;5067111;28;20044;-39
2023/03/22 06:05:12;;;;;;;20.85;12.73;;;8.60;99.90;;;;;;5067218;28;20481;-39
2023/03/22 06:07:39;;;;;;;20.35;12.20;;;9.20;99.90;;;;;;5067279;28;20237;-40
2023/03/22 06:10:07;;;;;;;21.23;13.13;;;9.10;99.90;;;;;;5049424;28;20052;-39
2023/03/22 06:12:33;;;;;;;20.35;12.10;;;8.60;99.90;;;;;;5066916;28;20048;-39
2023/03/22 06:14:59;;;;;;;21.42;13.90;;;8.90;99.90;;;;;;5049458;28;20478;-39
2023/03/22 06:17:25;;;;;;;21.38;13.35;;;9.40;99.90;;;;;;5067192;28;20036;-39
2023/03/22 06:19:53;;;;;;;19.48;12.77;;;8.90;99.90;;;;;;5066509;28;20393;-39
2023/03/22 06:22:20;;;;;;;18.08;12.57;;;9.10;99.90;;;;;;5066876;28;20036;-39
2023/03/22 06:24:46;;;;;;;24.38;14.07;;;9.00;99.90;;;;;;5066485;28;20072;-39
2023/03/22 06:27:12;;;;;;;18.55;12.43;;;8.90;99.90;;;;;;5065916;28;20049;-39
2023/03/22 06:29:38;;;;;;;21.63;13.43;;;9.00;99.90;;;;;;5066015;28;20681;-39
2023/03/22 06:32:04;;;;;;;20.45;12.80;;;9.10;99.90;;;;;;5065646;28;20049;-39
2023/03/22 06:34:29;;;;;;;20.30;13.18;;;8.70;99.90;;;;;;5048018;28;20045;-39
2023/03/22 06:36:55;;;;;;;19.35;12.43;;;9.00;99.90;;;;;;5066986;28;20122;-39
2023/03/22 06:39:21;;;;;;;17.30;11.77;;;9.00;99.90;;;;;;5048848;28;20490;-39
2023/03/22 06:41:47;;;;;;;19.75;12.82;;;8.70;99.90;;;;;;5067145;28;20044;-39
2023/03/22 06:44:13;;;;;;;18.10;12.45;;;9.30;99.90;;;;;;5067250;28;20036;-39
2023/03/22 06:46:39;;;;;;;19.08;12.95;;;9.50;99.90;;;;;;5066969;28;20049;-39
2023/03/22 06:49:05;;;;;;;18.25;11.40;;;9.70;99.90;;;;;;5066813;28;20048;-39
2023/03/22 06:51:31;;;;;;;18.00;11.55;;;9.60;99.90;;;;;;5066440;28;20098;-39
2023/03/22 06:53:57;;;;;;;17.52;11.07;;;10.00;99.90;;;;;;5067072;28;20064;-39
2023/03/22 06:56:22;;;;;;;15.93;9.75;;;10.00;99.90;;;;;;5066917;28;20060;-40
2023/03/22 06:58:50;;;;;;;15.50;10.15;;;10.10;99.90;;;;;;5048714;28;20087;-40
2023/03/22 07:01:17;;;;;;;15.43;10.43;;;10.60;99.90;;;;;;5066678;28;20064;-39
2023/03/22 07:03:42;;;;;;;16.20;10.48;;;10.40;99.90;;;;;;5066398;28;20123;-39
2023/03/22 07:06:08;;;;;;;11.90;8.45;;;10.60;99.90;;;;;;5066418;28;20045;-40
2023/03/22 07:08:35;;;;;;;12.07;8.63;;;10.30;99.90;;;;;;5066094;28;20039;-39
2023/03/22 07:11:02;;;;;;;12.43;8.50;;;10.40;99.90;;;;;;5065921;28;20044;-39
2023/03/22 07:13:28;;;;;;;14.27;7.97;;;10.50;99.90;;;;;;5065974;28;20043;-39
2023/03/22 07:15:57;;;;;;;12.43;8.25;;;10.60;99.90;;;;;;5065923;28;20044;-39
2023/03/22 07:18:24;;;;;;;12.20;7.60;;;10.60;99.90;;;;;;5065358;28;20044;-39
2023/03/22 07:20:50;;;;;;;13.95;7.47;;;10.50;99.90;;;;;;5064962;28;20175;-39
2023/03/22 07:23:16;;;;;;;12.48;7.00;;;10.80;99.90;;;;;;5066562;28;20079;-39
2023/03/22 07:25:43;;;;;;;13.88;8.30;;;10.60;99.90;;;;;;5065628;28;20040;-40
2023/03/22 07:28:10;;;;;;;12.25;6.90;;;11.30;99.90;;;;;;5066258;28;20040;-39
2023/03/22 07:30:37;;;;;;;14.77;8.35;;;10.90;99.90;;;;;;5065803;28;20052;-39
2023/03/22 07:33:07;;;;;;;11.20;6.75;;;11.10;99.90;;;;;;5065976;28;20040;-39
2023/03/22 07:35:33;;;;;;;11.38;6.43;;;11.20;99.90;;;;;;5065900;28;20301;-39
2023/03/22 07:37:59;;;;;;;10.25;5.72;;;11.10;99.90;;;;;;5066049;28;20052;-39
2023/03/22 07:40:26;;;;;;;11.75;5.88;;;11.00;99.90;;;;;;5066194;28;20080;-39
2023/03/22 07:42:52;;;;;;;10.70;5.93;;;10.70;99.90;;;;;;5066194;28;20083;-39
2023/03/22 07:45:19;;;;;;;12.25;5.82;;;10.70;99.90;;;;;;5048296;28;20082;-40
2023/03/22 07:47:45;;;;;;;13.73;5.80;;;10.80;99.90;;;;;;5066245;28;20041;-39
2023/03/22 07:50:12;;;;;;;12.80;6.05;;;11.00;99.90;;;;;;5065692;28;20032;-39
2023/03/22 07:52:41;;;;;;;10.02;5.40;;;11.10;99.90;;;;;;5066343;28;20044;-39
2023/03/22 07:55:09;;;;;;;10.52;5.22;;;11.30;99.90;;;;;;5066235;28;20653;-39
2023/03/22 07:57:35;;;;;;;7.88;4.35;;;11.30;99.90;;;;;;5066170;28;20033;-39
2023/03/22 08:00:03;;;;;;;12.50;5.15;;;11.80;99.90;;;;;;5047685;28;20056;-39
2023/03/22 08:02:29;;;;;;;11.77;5.05;;;11.60;99.90;;;;;;5066179;28;20078;-39
2023/03/22 08:04:55;;;;;;;10.25;4.75;;;11.60;99.90;;;;;;5047747;28;20073;-39
2023/03/22 08:07:21;;;;;;;12.73;4.97;;;11.20;99.90;;;;;;5066305;28;20044;-39
2023/03/22 08:09:47;;;;;;;7.05;4.22;;;11.40;99.90;;;;;;5066265;28;20032;-39
2023/03/22 08:12:12;;;;;;;8.80;4.32;;;11.00;99.90;;;;;;5048066;28;20041;-39
2023/03/22 08:14:38;;;;;;;8.90;4.70;;;10.90;99.90;;;;;;5066085;28;20292;-40
2023/03/22 08:17:04;;;;;;;10.52;4.40;;;11.00;99.90;;;;;;5066044;28;20099;-39
2023/03/22 08:19:31;;;;;;;7.55;3.78;;;11.10;99.90;;;;;;5064976;28;20048;-39
2023/03/22 08:21:58;;;;;;;10.60;4.30;;;10.70;99.90;;;;;;5065962;28;20489;-40
2023/03/22 08:24:24;;;;;;;10.65;3.83;;;10.70;99.90;;;;;;5066171;28;20045;-39
2023/03/22 08:26:50;;;;;;;11.05;3.95;;;10.70;99.90;;;;;;5065540;28;20049;-39
2023/03/22 08:29:16;;;;;;;11.25;4.00;;;10.80;99.90;;;;;;5065799;28;20048;-39
2023/03/22 08:31:42;;;;;;;9.73;4.00;;;11.40;99.90;;;;;;5067360;28;20033;-39
2023/03/22 08:34:07;;;;;;;11.00;4.97;;;10.70;99.90;;;;;;5069827;28;20508;-39
2023/03/22 08:36:33;;;;;;;7.53;3.40;;;10.80;99.90;;;;;;5069182;28;20041;-39
2023/03/22 08:39:00;;;;;;;8.23;3.67;;;11.10;99.90;;;;;;5069561;28;20064;-39
2023/03/22 08:41:26;;;;;;;6.07;3.28;;;11.70;99.90;;;;;;5069323;28;20049;-39
2023/03/22 08:43:52;;;;;;;10.45;3.67;;;11.50;99.90;;;;;;5070166;28;20041;-39
2023/03/22 08:46:17;;;;;;;7.18;3.95;;;11.50;99.90;;;;;;5070007;28;20047;-39
2023/03/22 08:48:49;;;;;;;8.55;4.13;;;11.40;99.90;;;;;;5069824;28;20039;-39
2023/03/22 08:51:20;;;;;;;9.30;3.55;;;11.30;99.90;;;;;;5068956;28;20130;-39
2023/03/22 08:53:47;;;;;;;5.45;3.38;;;11.30;99.90;;;;;;5069284;28;20075;-39
2023/03/22 08:56:15;;;;;;;8.10;3.22;;;11.20;99.90;;;;;;5069333;28;20036;-39
2023/03/22 08:58:45;;;;;;;6.55;2.88;;;11.60;99.90;;;;;;5069495;28;20097;-39
2023/03/22 09:01:15;;;;;;;12.55;3.70;;;11.30;99.90;;;;;;5069643;28;20045;-39
2023/03/22 09:03:42;;;;;;;9.00;3.55;;;11.80;99.90;;;;;;5069153;28;20055;-39
2023/03/22 09:06:09;;;;;;;11.48;3.95;;;11.50;99.90;;;;;;5068721;28;20037;-39
2023/03/22 09:08:35;;;;;;;10.98;3.53;;;11.60;99.90;;;;;;5069230;28;20048;-39
2023/03/22 09:11:01;;;;;;;6.47;2.67;;;11.90;99.90;;;;;;5069111;28;20073;-39
2023/03/22 09:13:29;;;;;;;7.80;2.83;;;12.10;99.90;;;;;;5069017;28;20048;-39
2023/03/22 09:15:55;;;;;;;7.97;2.80;;;12.20;99.90;;;;;;5068138;28;20147;-39
2023/03/22 09:18:23;;;;;;;10.02;3.88;;;12.20;99.90;;;;;;5068403;28;20041;-39
2023/03/22 09:20:49;;;;;;;7.35;2.08;;;12.30;99.90;;;;;;5067012;28;20461;-39
2023/03/22 09:23:14;;;;;;;10.95;2.80;;;12.30;99.90;;;;;;5067840;28;20477;-39
2023/03/22 09:25:44;;;;;;;14.05;2.92;;;12.30;99.90;;;;;;5067844;28;20040;-39
2023/03/22 09:28:10;;;;;;;8.43;2.65;;;12.40;99.90;;;;;;5066679;28;20049;-39
2023/03/22 09:30:36;;;;;;;9.60;2.75;;;12.40;99.90;;;;;;5067686;28;20551;-39
2023/03/22 09:33:02;;;;;;;6.13;2.08;;;12.50;99.90;;;;;;5068078;28;20156;-39
2023/03/22 09:35:28;;;;;;;10.07;2.47;;;12.50;99.90;;;;;;5067327;28;20479;-39
2023/03/22 09:37:55;;;;;;;9.07;2.40;;;12.40;99.90;;;;;;5067285;28;20047;-39
2023/03/22 09:40:31;;;;;;;8.43;2.55;;;12.40;99.90;;;;;;5067913;28;20126;-39
2023/03/22 09:43:00;;;;;;;8.80;2.88;;;12.30;99.90;;;;;;5066911;28;20040;-39
2023/03/22 09:45:41;;;;;;;8.98;2.67;;;12.40;99.90;;;;;;5048598;28;20554;-42
2023/03/22 09:48:21;;;;;;;12.32;2.65;;;12.20;99.90;;;;;;5064793;28;20218;-42
2023/03/22 09:50:50;;;;;;;12.00;2.80;;;12.20;99.90;;;;;;5066823;28;20052;-41
2023/03/22 09:53:25;;;;;;;9.32;2.60;;;12.20;99.90;;;;;;5066168;28;20051;-44
2023/03/22 09:56:03;;;;;;;9.30;2.30;;;12.20;99.90;;;;;;5065860;28;20375;-46
2023/03/22 09:58:52;;;;;;;8.45;2.13;;;12.10;99.90;;;;;;5065570;28;20079;-47
2023/03/22 10:01:24;;;;;;;10.68;2.38;;;12.10;99.90;;;;;;5065554;28;20044;-46
2023/03/22 10:04:12;;;;;;;12.60;2.65;;;12.10;99.90;;;;;;5066492;28;20048;-44
2023/03/22 10:06:44;;;;;;;11.38;2.78;;;12.00;99.90;;;;;;5064793;28;20182;-45
2023/03/22 10:09:13;;;;;;;9.73;2.47;;;12.10;99.90;;;;;;5065527;28;20678;-48
2023/03/22 10:11:51;;;;;;;10.98;2.60;;;11.90;99.90;;;;;;5066128;28;20041;-53
2023/03/22 10:14:31;;;;;;;6.93;2.38;;;11.30;99.90;;;;;;5064446;28;20067;-43
2023/03/22 10:17:04;;;;;;;9.80;3.15;;;11.00;99.90;;;;;;5064160;28;20062;-39
2023/03/22 10:19:56;;;;;;;7.82;2.25;;;11.00;99.90;;;;;;5064842;28;20040;-40
2023/03/22 10:22:28;;;;;;;10.02;2.50;;;11.20;99.90;;;;;;5066385;28;20048;-41
2023/03/22 10:24:55;;;;;;;10.38;3.40;;;10.80;99.90;;;;;;5067248;28;20429;-42
2023/03/22 10:27:22;;;;;;;9.70;2.88;;;11.00;99.90;;;;;;5066608;28;20074;-42
2023/03/22 10:29:58;;;;;;;9.85;2.63;;;10.80;99.90;;;;;;5067170;28;20040;-42
2023/03/22 10:32:31;;;;;;;7.72;2.33;;;11.00;99.90;;;;;;5067003;28;20041;-43
2023/03/22 10:34:57;;;;;;;7.10;3.33;;;11.00;99.90;;;;;;5066822;28;20080;-41
2023/03/22 10:37:28;;;;;;;7.05;2.35;;;10.70;99.90;;;;;;5067113;28;20662;-42
2023/03/22 10:39:56;;;;;;;10.57;3.40;;;10.60;99.90;;;;;;5067076;28;20040;-42
2023/03/22 10:42:26;;;;;;;10.55;2.58;;;10.60;99.90;;;;;;5066656;28;20040;-42
2023/03/22 10:44:59;;;;;;;11.23;3.05;;;10.50;99.90;;;;;;5066852;28;20040;-42
2023/03/22 10:47:53;;;;;;;10.23;2.88;;;10.50;99.90;;;;;;5067187;28;20036;-43
2023/03/22 10:50:32;;;;;;;6.78;3.25;;;10.30;99.90;;;;;;5064253;28;20063;-42
2023/03/22 10:53:05;;;;;;;5.85;2.80;;;10.20;99.90;;;;;;5067218;28;20048;-42
2023/03/22 10:55:31;;;;;;;10.73;3.00;;;10.10;99.90;;;;;;5066688;28;20047;-43
2023/03/22 10:58:16;;;;;;;7.55;3.22;;;10.30;99.90;;;;;;5066854;28;20044;-41
2023/03/22 11:00:53;;;;;;;12.43;3.97;;;10.10;99.90;;;;;;5048777;28;20131;-41
2023/03/22 11:03:27;;;;;;;7.20;3.70;;;10.40;99.90;;;;;;5067117;28;20378;-43
2023/03/22 11:06:22;;;;;;;10.20;3.80;;;10.10;99.90;;;;;;5066920;28;20097;-41
2023/03/22 11:08:57;;;;;;;7.85;4.05;;;10.80;99.90;;;;;;5064819;28;20062;-41
2023/03/22 11:11:57;;;;;;;9.05;4.15;;;10.10;99.90;;;;;;5066811;28;20710;-42
2023/03/22 11:14:41;;;;;;;10.98;4.43;;;10.00;99.90;;;;;;5066665;28;20040;-41
2023/03/22 11:17:20;;;;;;;12.32;3.90;;;10.10;99.90;;;;;;5066389;28;20123;-42
2023/03/22 11:19:54;;;;;;;9.90;4.53;;;10.10;99.90;;;;;;5066864;28;20048;-41
2023/03/22 11:22:41;;;;;;;9.38;3.63;;;10.20;99.90;;;;;;5049007;28;20032;-41
2023/03/22 11:25:17;;;;;;;10.43;4.32;;;10.10;99.90;;;;;;5067025;28;20041;-42
2023/03/22 11:27:53;;;;;;;12.93;4.90;;;10.10;99.90;;;;;;5067132;28;20417;-44
2023/03/22 11:30:19;;;;;;;10.68;4.10;;;10.10;99.90;;;;;;5048456;28;20045;-42
2023/03/22 11:32:45;;;;;;;9.15;4.35;;;10.00;99.90;;;;;;5066554;28;20542;-41
2023/03/22 11:35:12;;;;;;;11.85;4.43;;;10.40;99.90;;;;;;5066509;28;20123;-42
2023/03/22 11:37:44;;;;;;;13.05;4.97;;;10.00;99.90;;;;;;5066795;28;20044;-42
2023/03/22 11:40:16;;;;;;;9.93;4.37;;;10.00;99.90;;;;;;5066114;28;20083;-45
2023/03/22 11:42:42;;;;;;;9.55;4.03;;;10.00;99.90;;;;;;5066668;28;20105;-42
2023/03/22 11:45:15;;;;;;;12.00;4.20;;;10.10;99.90;;;;;;5066312;28;20043;-43
2023/03/22 11:47:41;;;;;;;10.90;4.10;;;10.20;99.90;;;;;;5066743;28;20039;-42
2023/03/22 11:50:18;;;;;;;7.53;3.80;;;10.30;99.90;;;;;;5066415;28;20044;-44
2023/03/22 11:52:47;;;;;;;12.10;3.80;;;10.30;99.90;;;;;;5066679;28;20090;-42
2023/03/22 11:55:15;;;;;;;10.05;3.88;;;10.30;99.90;;;;;;5066488;28;20161;-42
2023/03/22 11:57:40;;;;;;;12.15;3.45;;;10.30;99.90;;;;;;5065704;28;20506;-42
2023/03/22 12:00:23;;;;;;;9.68;3.33;;;10.40;99.90;;;;;;5066060;28;20060;-42
2023/03/22 12:02:57;;;;;;;8.05;2.85;;;10.30;99.90;;;;;;5066363;28;20182;-43
2023/03/22 12:05:27;;;;;;;8.80;2.75;;;10.30;99.90;;;;;;5067122;28;20516;-44
2023/03/22 12:08:10;;;;;;;9.15;2.97;;;10.30;99.90;;;;;;5070221;28;20045;-42
2023/03/22 12:10:40;;;;;;;12.30;3.28;;;10.20;99.90;;;;;;5069968;28;20056;-42
2023/03/22 12:13:38;;;;;;;6.68;3.03;;;10.30;99.90;;;;;;5069713;28;20044;-42
2023/03/22 12:16:05;;;;;;;6.63;2.70;;;10.20;99.90;;;;;;5059804;28;20727;-42
2023/03/22 12:19:22;;;;;;;10.75;3.28;;;10.20;99.90;;;;;;5067658;28;20453;-43
2023/03/22 12:21:49;;;;;;;5.00;3.10;;;10.10;99.90;;;;;;4986081;28;20043;-43
2023/03/22 12:24:26;;;;;;;5.72;2.67;;;10.00;99.90;;;;;;5059803;28;20145;-43
2023/03/22 12:26:57;;;;;;;10.27;3.70;;;10.00;99.90;;;;;;5068584;28;20044;-43
2023/03/22 12:29:23;;;;;;;8.00;3.15;;;10.10;99.90;;;;;;5050056;28;20054;-43
2023/03/22 12:32:10;;;;;;;10.63;3.83;;;9.90;99.90;;;;;;5069359;28;20048;-42
2023/03/22 12:34:43;;;;;;;13.65;4.82;;;9.90;99.90;;;;;;5068974;28;20115;-42
2023/03/22 12:37:19;;;;;;;9.18;3.80;;;9.90;99.90;;;;;;5069199;28;20446;-42
2023/03/22 12:39:53;;;;;;;10.93;3.63;;;9.80;99.90;;;;;;5069342;28;20044;-42
2023/03/22 12:42:36;;;;;;;6.13;3.85;;;9.90;99.90;;;;;;5068423;28;20721;-42
2023/03/22 12:45:10;;;;;;;9.68;4.05;;;10.30;99.90;;;;;;5069238;28;20054;-42
2023/03/22 12:47:41;;;;;;;7.78;3.45;;;9.80;99.90;;;;;;5069212;28;20040;-42
2023/03/22 12:50:25;;;;;;;12.13;3.70;;;9.90;99.90;;;;;;5069288;28;20064;-42
2023/03/22 12:52:53;;;;;;;8.15;3.47;;;9.70;99.90;;;;;;5068991;28;20048;-42
2023/03/22 12:55:30;;;;;;;9.18;3.92;;;10.40;99.90;;;;;;5069234;28;20036;-43
2023/03/22 12:57:56;;;;;;;10.88;3.67;;;10.00;99.90;;;;;;5050840;28;20059;-42
2023/03/22 13:00:27;;;;;;;8.18;3.53;;;9.90;99.90;;;;;;5047400;28;20053;-42